sensor_id;sensor_type;location;lat;lon;timestamp;temperature;humidity
71128;SHT30;59249;59.736;30.568;2023-05-02T00:00:24;7.87;60.29
71128;SHT30;59249;59.736;30.568;2023-05-02T00:02:53;7.84;60.47
71128;SHT30;59249;59.736;30.568;2023-05-02T00:05:22;7.89;60.75
71128;SHT30;59249;59.736;30.568;2023-05-02T00:07:51;7.82;61.68
71128;SHT30;59249;59.736;30.568;2023-05-02T00:10:20;7.80;62.66
71128;SHT30;59249;59.736;30.568;2023-05-02T00:12:49;7.81;63.42
71128;SHT30;59249;59.736;30.568;2023-05-02T00:15:19;7.68;65.23
71128;SHT30;59249;59.736;30.568;2023-05-02T00:17:48;7.64;66.13
71128;SHT30;59249;59.736;30.568;2023-05-02T00:20:18;7.54;66.70
71128;SHT30;59249;59.736;30.568;2023-05-02T00:22:47;7.56;67.14
71128;SHT30;59249;59.736;30.568;2023-05-02T00:25:16;7.47;67.47
71128;SHT30;59249;59.736;30.568;2023-05-02T00:27:46;7.42;67.86
71128;SHT30;59249;59.736;30.568;2023-05-02T00:30:18;7.31;68.77
71128;SHT30;59249;59.736;30.568;2023-05-02T00:32:47;7.40;68.80
71128;SHT30;59249;59.736;30.568;2023-05-02T00:35:16;7.40;69.16
71128;SHT30;59249;59.736;30.568;2023-05-02T00:37:46;7.37;69.83
71128;SHT30;59249;59.736;30.568;2023-05-02T00:40:15;7.38;69.67
71128;SHT30;59249;59.736;30.568;2023-05-02T00:42:46;7.38;69.53
71128;SHT30;59249;59.736;30.568;2023-05-02T00:45:16;7.33;70.39
71128;SHT30;59249;59.736;30.568;2023-05-02T00:47:49;7.34;71.35
71128;SHT30;59249;59.736;30.568;2023-05-02T00:50:20;7.35;71.01
71128;SHT30;59249;59.736;30.568;2023-05-02T00:52:50;7.24;71.24
71128;SHT30;59249;59.736;30.568;2023-05-02T00:55:21;7.24;71.73
71128;SHT30;59249;59.736;30.568;2023-05-02T00:57:50;7.21;71.61
71128;SHT30;59249;59.736;30.568;2023-05-02T01:00:26;7.24;71.88
71128;SHT30;59249;59.736;30.568;2023-05-02T01:03:11;7.12;72.10
71128;SHT30;59249;59.736;30.568;2023-05-02T01:05:57;7.23;72.03
71128;SHT30;59249;59.736;30.568;2023-05-02T01:08:37;7.16;72.64
71128;SHT30;59249;59.736;30.568;2023-05-02T01:11:20;7.16;72.49
71128;SHT30;59249;59.736;30.568;2023-05-02T01:13:58;7.20;72.65
71128;SHT30;59249;59.736;30.568;2023-05-02T01:16:31;7.21;72.38
71128;SHT30;59249;59.736;30.568;2023-05-02T01:19:07;7.15;73.14
71128;SHT30;59249;59.736;30.568;2023-05-02T01:21:52;7.19;72.75
71128;SHT30;59249;59.736;30.568;2023-05-02T01:24:29;7.19;73.32
71128;SHT30;59249;59.736;30.568;2023-05-02T01:27:14;7.12;73.73
71128;SHT30;59249;59.736;30.568;2023-05-02T01:30:00;7.06;73.89
71128;SHT30;59249;59.736;30.568;2023-05-02T01:32:37;7.09;74.04
71128;SHT30;59249;59.736;30.568;2023-05-02T01:35:15;7.10;74.12
71128;SHT30;59249;59.736;30.568;2023-05-02T01:37:52;7.10;74.20
71128;SHT30;59249;59.736;30.568;2023-05-02T01:40:35;7.15;74.19
71128;SHT30;59249;59.736;30.568;2023-05-02T01:43:26;7.16;74.45
71128;SHT30;59249;59.736;30.568;2023-05-02T01:46:15;7.12;74.56
71128;SHT30;59249;59.736;30.568;2023-05-02T01:48:48;7.19;74.72
71128;SHT30;59249;59.736;30.568;2023-05-02T01:51:27;7.16;74.87
71128;SHT30;59249;59.736;30.568;2023-05-02T01:54:12;7.22;75.21
71128;SHT30;59249;59.736;30.568;2023-05-02T01:56:59;7.09;75.43
71128;SHT30;59249;59.736;30.568;2023-05-02T01:59:36;7.15;76.21
71128;SHT30;59249;59.736;30.568;2023-05-02T02:02:29;7.19;76.19
71128;SHT30;59249;59.736;30.568;2023-05-02T02:05:00;7.18;76.50
71128;SHT30;59249;59.736;30.568;2023-05-02T02:07:31;7.20;76.75
71128;SHT30;59249;59.736;30.568;2023-05-02T02:10:02;7.24;76.73
71128;SHT30;59249;59.736;30.568;2023-05-02T02:12:39;7.25;76.89
71128;SHT30;59249;59.736;30.568;2023-05-02T02:15:18;7.28;76.93
71128;SHT30;59249;59.736;30.568;2023-05-02T02:17:58;7.22;77.22
71128;SHT30;59249;59.736;30.568;2023-05-02T02:20:31;7.26;77.16
71128;SHT30;59249;59.736;30.568;2023-05-02T02:23:07;7.31;77.42
71128;SHT30;59249;59.736;30.568;2023-05-02T02:25:44;7.13;78.13
71128;SHT30;59249;59.736;30.568;2023-05-02T02:28:23;7.24;77.91
71128;SHT30;59249;59.736;30.568;2023-05-02T02:31:10;7.23;78.19
71128;SHT30;59249;59.736;30.568;2023-05-02T02:33:43;7.23;78.13
71128;SHT30;59249;59.736;30.568;2023-05-02T02:36:28;7.29;78.40
71128;SHT30;59249;59.736;30.568;2023-05-02T02:39:29;7.09;78.91
71128;SHT30;59249;59.736;30.568;2023-05-02T02:42:17;7.25;78.97
71128;SHT30;59249;59.736;30.568;2023-05-02T02:45:04;7.25;78.92
71128;SHT30;59249;59.736;30.568;2023-05-02T02:47:53;7.17;79.02
71128;SHT30;59249;59.736;30.568;2023-05-02T02:50:35;7.24;79.35
71128;SHT30;59249;59.736;30.568;2023-05-02T02:53:08;7.19;79.64
71128;SHT30;59249;59.736;30.568;2023-05-02T02:55:56;7.24;79.65
71128;SHT30;59249;59.736;30.568;2023-05-02T02:58:38;7.19;79.80
71128;SHT30;59249;59.736;30.568;2023-05-02T03:01:17;7.22;79.95
71128;SHT30;59249;59.736;30.568;2023-05-02T03:03:51;7.19;80.18
71128;SHT30;59249;59.736;30.568;2023-05-02T03:06:40;7.19;80.29
71128;SHT30;59249;59.736;30.568;2023-05-02T03:09:15;7.25;80.43
71128;SHT30;59249;59.736;30.568;2023-05-02T03:11:49;7.25;80.69
71128;SHT30;59249;59.736;30.568;2023-05-02T03:14:28;7.22;80.68
71128;SHT30;59249;59.736;30.568;2023-05-02T03:17:08;7.37;80.40
71128;SHT30;59249;59.736;30.568;2023-05-02T03:19:46;7.36;80.42
71128;SHT30;59249;59.736;30.568;2023-05-02T03:22:17;7.34;80.58
71128;SHT30;59249;59.736;30.568;2023-05-02T03:24:47;7.42;80.38
71128;SHT30;59249;59.736;30.568;2023-05-02T03:27:21;7.44;80.18
71128;SHT30;59249;59.736;30.568;2023-05-02T03:29:52;7.39;80.40
71128;SHT30;59249;59.736;30.568;2023-05-02T03:32:21;7.41;80.55
71128;SHT30;59249;59.736;30.568;2023-05-02T03:35:05;7.49;80.57
71128;SHT30;59249;59.736;30.568;2023-05-02T03:37:45;7.44;80.50
71128;SHT30;59249;59.736;30.568;2023-05-02T03:40:14;7.48;80.45
71128;SHT30;59249;59.736;30.568;2023-05-02T03:42:52;7.55;80.07
71128;SHT30;59249;59.736;30.568;2023-05-02T03:45:29;7.50;80.45
71128;SHT30;59249;59.736;30.568;2023-05-02T03:47:59;7.51;80.20
71128;SHT30;59249;59.736;30.568;2023-05-02T03:50:29;7.57;80.20
71128;SHT30;59249;59.736;30.568;2023-05-02T03:53:00;7.59;80.24
71128;SHT30;59249;59.736;30.568;2023-05-02T03:55:40;7.60;80.01
71128;SHT30;59249;59.736;30.568;2023-05-02T03:58:16;7.62;80.47
71128;SHT30;59249;59.736;30.568;2023-05-02T04:00:46;7.66;80.63
71128;SHT30;59249;59.736;30.568;2023-05-02T04:03:17;7.76;80.40
71128;SHT30;59249;59.736;30.568;2023-05-02T04:05:47;7.71;80.36
71128;SHT30;59249;59.736;30.568;2023-05-02T04:08:19;7.85;80.23
71128;SHT30;59249;59.736;30.568;2023-05-02T04:10:51;7.84;80.19
71128;SHT30;59249;59.736;30.568;2023-05-02T04:13:22;7.96;80.17
71128;SHT30;59249;59.736;30.568;2023-05-02T04:15:51;8.01;80.15
71128;SHT30;59249;59.736;30.568;2023-05-02T04:18:22;8.01;80.17
71128;SHT30;59249;59.736;30.568;2023-05-02T04:20:53;8.07;79.94
71128;SHT30;59249;59.736;30.568;2023-05-02T04:23:34;8.10;80.04
71128;SHT30;59249;59.736;30.568;2023-05-02T04:26:20;8.07;80.07
71128;SHT30;59249;59.736;30.568;2023-05-02T04:29:13;8.18;79.79
71128;SHT30;59249;59.736;30.568;2023-05-02T04:31:47;8.19;79.40
71128;SHT30;59249;59.736;30.568;2023-05-02T04:34:25;8.25;79.29
71128;SHT30;59249;59.736;30.568;2023-05-02T04:37:15;8.31;79.58
71128;SHT30;59249;59.736;30.568;2023-05-02T04:40:10;8.47;79.19
71128;SHT30;59249;59.736;30.568;2023-05-02T04:42:48;8.47;79.41
71128;SHT30;59249;59.736;30.568;2023-05-02T04:45:24;8.56;79.29
71128;SHT30;59249;59.736;30.568;2023-05-02T04:48:22;8.64;79.20
71128;SHT30;59249;59.736;30.568;2023-05-02T04:50:55;8.72;78.86
71128;SHT30;59249;59.736;30.568;2023-05-02T04:53:28;8.82;78.62
71128;SHT30;59249;59.736;30.568;2023-05-02T04:56:13;8.93;78.29
71128;SHT30;59249;59.736;30.568;2023-05-02T04:58:44;9.03;77.49
71128;SHT30;59249;59.736;30.568;2023-05-02T05:01:21;9.12;76.86
71128;SHT30;59249;59.736;30.568;2023-05-02T05:04:04;9.19;76.75
71128;SHT30;59249;59.736;30.568;2023-05-02T05:06:37;9.33;76.58
71128;SHT30;59249;59.736;30.568;2023-05-02T05:09:26;9.43;76.09
71128;SHT30;59249;59.736;30.568;2023-05-02T05:12:04;9.46;74.78
71128;SHT30;59249;59.736;30.568;2023-05-02T05:14:37;9.57;74.15
71128;SHT30;59249;59.736;30.568;2023-05-02T05:17:09;9.67;73.74
71128;SHT30;59249;59.736;30.568;2023-05-02T05:19:42;9.73;72.96
71128;SHT30;59249;59.736;30.568;2023-05-02T05:22:59;9.87;73.06
71128;SHT30;59249;59.736;30.568;2023-05-02T05:25:36;9.99;72.30
71128;SHT30;59249;59.736;30.568;2023-05-02T05:28:27;10.00;71.83
71128;SHT30;59249;59.736;30.568;2023-05-02T05:30:57;10.08;71.88
71128;SHT30;59249;59.736;30.568;2023-05-02T05:33:40;10.10;71.39
71128;SHT30;59249;59.736;30.568;2023-05-02T05:36:13;10.15;71.43
71128;SHT30;59249;59.736;30.568;2023-05-02T05:38:43;10.26;70.84
71128;SHT30;59249;59.736;30.568;2023-05-02T05:41:13;10.32;70.77
71128;SHT30;59249;59.736;30.568;2023-05-02T05:43:48;10.48;70.25
71128;SHT30;59249;59.736;30.568;2023-05-02T05:46:19;10.52;69.74
71128;SHT30;59249;59.736;30.568;2023-05-02T05:48:50;10.66;69.19
71128;SHT30;59249;59.736;30.568;2023-05-02T05:51:24;10.86;68.55
71128;SHT30;59249;59.736;30.568;2023-05-02T05:53:59;11.17;67.36
71128;SHT30;59249;59.736;30.568;2023-05-02T05:56:43;11.29;66.46
71128;SHT30;59249;59.736;30.568;2023-05-02T05:59:26;11.50;66.36
71128;SHT30;59249;59.736;30.568;2023-05-02T06:02:00;11.63;65.31
71128;SHT30;59249;59.736;30.568;2023-05-02T06:04:35;11.66;64.60
71128;SHT30;59249;59.736;30.568;2023-05-02T06:07:05;11.72;64.41
71128;SHT30;59249;59.736;30.568;2023-05-02T06:09:43;11.91;64.44
71128;SHT30;59249;59.736;30.568;2023-05-02T06:12:31;12.03;63.81
71128;SHT30;59249;59.736;30.568;2023-05-02T06:15:03;12.11;63.63
71128;SHT30;59249;59.736;30.568;2023-05-02T06:17:35;12.21;63.35
71128;SHT30;59249;59.736;30.568;2023-05-02T06:20:08;12.13;62.19
71128;SHT30;59249;59.736;30.568;2023-05-02T06:22:38;12.22;62.33
71128;SHT30;59249;59.736;30.568;2023-05-02T06:25:08;12.29;62.14
71128;SHT30;59249;59.736;30.568;2023-05-02T06:27:37;12.32;61.61
71128;SHT30;59249;59.736;30.568;2023-05-02T06:30:10;12.41;61.83
71128;SHT30;59249;59.736;30.568;2023-05-02T06:32:43;12.59;61.87
71128;SHT30;59249;59.736;30.568;2023-05-02T06:35:13;12.58;61.30
71128;SHT30;59249;59.736;30.568;2023-05-02T06:37:45;12.68;61.37
71128;SHT30;59249;59.736;30.568;2023-05-02T06:40:33;12.74;61.07
71128;SHT30;59249;59.736;30.568;2023-05-02T06:43:12;12.85;60.79
71128;SHT30;59249;59.736;30.568;2023-05-02T06:45:54;12.91;59.97
71128;SHT30;59249;59.736;30.568;2023-05-02T06:48:23;12.96;60.22
71128;SHT30;59249;59.736;30.568;2023-05-02T06:50:54;13.07;59.97
71128;SHT30;59249;59.736;30.568;2023-05-02T06:53:25;13.22;59.68
71128;SHT30;59249;59.736;30.568;2023-05-02T06:56:00;13.37;59.79
71128;SHT30;59249;59.736;30.568;2023-05-02T06:58:30;13.48;59.23
71128;SHT30;59249;59.736;30.568;2023-05-02T07:01:01;13.53;58.28
71128;SHT30;59249;59.736;30.568;2023-05-02T07:03:39;13.59;58.23
71128;SHT30;59249;59.736;30.568;2023-05-02T07:06:12;13.68;57.44
71128;SHT30;59249;59.736;30.568;2023-05-02T07:08:45;13.76;57.20
71128;SHT30;59249;59.736;30.568;2023-05-02T07:11:16;13.74;56.51
71128;SHT30;59249;59.736;30.568;2023-05-02T07:13:46;14.02;56.86
71128;SHT30;59249;59.736;30.568;2023-05-02T07:16:21;14.09;56.75
71128;SHT30;59249;59.736;30.568;2023-05-02T07:18:51;14.25;56.28
71128;SHT30;59249;59.736;30.568;2023-05-02T07:21:30;14.37;54.83
71128;SHT30;59249;59.736;30.568;2023-05-02T07:24:01;14.48;54.39
71128;SHT30;59249;59.736;30.568;2023-05-02T07:26:31;14.68;54.80
71128;SHT30;59249;59.736;30.568;2023-05-02T07:29:01;14.80;54.21
71128;SHT30;59249;59.736;30.568;2023-05-02T07:31:34;14.90;53.48
71128;SHT30;59249;59.736;30.568;2023-05-02T07:34:04;14.99;53.54
71128;SHT30;59249;59.736;30.568;2023-05-02T07:36:35;15.04;52.51
71128;SHT30;59249;59.736;30.568;2023-05-02T07:39:11;15.06;52.04
71128;SHT30;59249;59.736;30.568;2023-05-02T07:41:42;15.09;51.40
71128;SHT30;59249;59.736;30.568;2023-05-02T07:44:41;15.13;50.72
71128;SHT30;59249;59.736;30.568;2023-05-02T07:47:38;15.18;50.52
71128;SHT30;59249;59.736;30.568;2023-05-02T07:50:16;15.28;50.77
71128;SHT30;59249;59.736;30.568;2023-05-02T07:52:59;15.20;50.89
71128;SHT30;59249;59.736;30.568;2023-05-02T07:55:29;15.18;50.50
71128;SHT30;59249;59.736;30.568;2023-05-02T07:58:03;15.18;50.34
71128;SHT30;59249;59.736;30.568;2023-05-02T08:00:48;15.22;49.65
71128;SHT30;59249;59.736;30.568;2023-05-02T08:03:19;15.25;50.03
71128;SHT30;59249;59.736;30.568;2023-05-02T08:05:59;15.39;50.18
71128;SHT30;59249;59.736;30.568;2023-05-02T08:08:33;15.39;49.62
71128;SHT30;59249;59.736;30.568;2023-05-02T08:11:03;15.49;49.89
71128;SHT30;59249;59.736;30.568;2023-05-02T08:13:37;15.58;49.18
71128;SHT30;59249;59.736;30.568;2023-05-02T08:16:07;15.60;47.72
71128;SHT30;59249;59.736;30.568;2023-05-02T08:18:39;15.57;47.75
71128;SHT30;59249;59.736;30.568;2023-05-02T08:21:09;15.66;47.42
71128;SHT30;59249;59.736;30.568;2023-05-02T08:23:42;15.72;47.26
71128;SHT30;59249;59.736;30.568;2023-05-02T08:26:14;15.80;47.61
71128;SHT30;59249;59.736;30.568;2023-05-02T08:28:45;15.85;47.30
71128;SHT30;59249;59.736;30.568;2023-05-02T08:31:14;15.95;47.47
71128;SHT30;59249;59.736;30.568;2023-05-02T08:33:44;16.02;47.79
71128;SHT30;59249;59.736;30.568;2023-05-02T08:36:17;16.12;47.50
71128;SHT30;59249;59.736;30.568;2023-05-02T08:38:49;16.12;47.24
71128;SHT30;59249;59.736;30.568;2023-05-02T08:41:19;16.25;47.21
71128;SHT30;59249;59.736;30.568;2023-05-02T08:43:48;16.25;46.09
71128;SHT30;59249;59.736;30.568;2023-05-02T08:46:22;16.30;46.23
71128;SHT30;59249;59.736;30.568;2023-05-02T08:48:53;16.46;46.18
71128;SHT30;59249;59.736;30.568;2023-05-02T08:51:37;16.52;46.06
71128;SHT30;59249;59.736;30.568;2023-05-02T08:54:09;16.51;45.91
71128;SHT30;59249;59.736;30.568;2023-05-02T08:56:55;16.57;45.62
71128;SHT30;59249;59.736;30.568;2023-05-02T08:59:25;16.62;45.48
71128;SHT30;59249;59.736;30.568;2023-05-02T09:02:11;16.76;45.33
71128;SHT30;59249;59.736;30.568;2023-05-02T09:04:54;17.02;45.39
71128;SHT30;59249;59.736;30.568;2023-05-02T09:07:46;17.25;45.29
71128;SHT30;59249;59.736;30.568;2023-05-02T09:10:17;17.41;43.92
71128;SHT30;59249;59.736;30.568;2023-05-02T09:12:56;17.45;43.09
71128;SHT30;59249;59.736;30.568;2023-05-02T09:15:27;17.54;43.68
71128;SHT30;59249;59.736;30.568;2023-05-02T09:17:56;17.61;43.97
71128;SHT30;59249;59.736;30.568;2023-05-02T09:20:27;17.74;44.17
71128;SHT30;59249;59.736;30.568;2023-05-02T09:23:04;17.74;40.90
71128;SHT30;59249;59.736;30.568;2023-05-02T09:25:36;17.76;41.80
71128;SHT30;59249;59.736;30.568;2023-05-02T09:28:05;17.85;42.35
71128;SHT30;59249;59.736;30.568;2023-05-02T09:30:35;17.85;42.23
71128;SHT30;59249;59.736;30.568;2023-05-02T09:33:37;17.79;41.66
71128;SHT30;59249;59.736;30.568;2023-05-02T09:36:10;17.86;41.90
71128;SHT30;59249;59.736;30.568;2023-05-02T09:38:42;17.82;41.52
71128;SHT30;59249;59.736;30.568;2023-05-02T09:41:12;17.86;41.14
71128;SHT30;59249;59.736;30.568;2023-05-02T09:43:41;17.81;39.76
71128;SHT30;59249;59.736;30.568;2023-05-02T09:46:11;17.85;39.87
71128;SHT30;59249;59.736;30.568;2023-05-02T09:48:52;18.04;39.67
71128;SHT30;59249;59.736;30.568;2023-05-02T09:51:27;18.01;39.43
71128;SHT30;59249;59.736;30.568;2023-05-02T09:54:05;17.93;39.52
71128;SHT30;59249;59.736;30.568;2023-05-02T09:56:51;17.88;39.34
71128;SHT30;59249;59.736;30.568;2023-05-02T09:59:24;17.86;39.96
71128;SHT30;59249;59.736;30.568;2023-05-02T10:02:03;17.71;40.04
71128;SHT30;59249;59.736;30.568;2023-05-02T10:04:56;17.84;39.13
71128;SHT30;59249;59.736;30.568;2023-05-02T10:07:28;17.93;39.08
71128;SHT30;59249;59.736;30.568;2023-05-02T10:10:05;18.03;39.44
71128;SHT30;59249;59.736;30.568;2023-05-02T10:12:38;17.97;39.05
71128;SHT30;59249;59.736;30.568;2023-05-02T10:15:13;17.95;38.94
71128;SHT30;59249;59.736;30.568;2023-05-02T10:17:47;17.84;38.79
71128;SHT30;59249;59.736;30.568;2023-05-02T10:20:24;17.95;38.56
71128;SHT30;59249;59.736;30.568;2023-05-02T10:23:00;18.14;38.63
71128;SHT30;59249;59.736;30.568;2023-05-02T10:25:29;18.32;38.86
71128;SHT30;59249;59.736;30.568;2023-05-02T10:28:02;18.36;38.96
71128;SHT30;59249;59.736;30.568;2023-05-02T10:30:34;18.45;38.36
71128;SHT30;59249;59.736;30.568;2023-05-02T10:33:05;18.50;38.18
71128;SHT30;59249;59.736;30.568;2023-05-02T10:35:36;18.62;38.19
71128;SHT30;59249;59.736;30.568;2023-05-02T10:38:08;18.78;37.95
71128;SHT30;59249;59.736;30.568;2023-05-02T10:40:48;19.00;38.20
71128;SHT30;59249;59.736;30.568;2023-05-02T10:43:30;19.09;37.58
71128;SHT30;59249;59.736;30.568;2023-05-02T10:46:00;19.17;37.41
71128;SHT30;59249;59.736;30.568;2023-05-02T10:48:30;19.33;37.49
71128;SHT30;59249;59.736;30.568;2023-05-02T10:51:01;19.50;37.26
71128;SHT30;59249;59.736;30.568;2023-05-02T10:53:37;19.42;36.92
71128;SHT30;59249;59.736;30.568;2023-05-02T10:56:20;19.39;36.28
71128;SHT30;59249;59.736;30.568;2023-05-02T10:59:27;19.33;36.00
71128;SHT30;59249;59.736;30.568;2023-05-02T11:02:48;19.32;35.82
71128;SHT30;59249;59.736;30.568;2023-05-02T11:05:24;19.46;36.10
71128;SHT30;59249;59.736;30.568;2023-05-02T11:08:29;19.54;36.35
71128;SHT30;59249;59.736;30.568;2023-05-02T11:11:39;19.50;35.89
71128;SHT30;59249;59.736;30.568;2023-05-02T11:14:43;19.70;36.14
71128;SHT30;59249;59.736;30.568;2023-05-02T11:17:16;19.72;35.80
71128;SHT30;59249;59.736;30.568;2023-05-02T11:20:27;19.82;35.17
71128;SHT30;59249;59.736;30.568;2023-05-02T11:22:59;19.83;34.93
71128;SHT30;59249;59.736;30.568;2023-05-02T11:25:55;19.64;35.11
71128;SHT30;59249;59.736;30.568;2023-05-02T11:28:44;19.61;34.84
71128;SHT30;59249;59.736;30.568;2023-05-02T11:32:03;19.68;34.85
71128;SHT30;59249;59.736;30.568;2023-05-02T11:35:00;19.88;35.22
71128;SHT30;59249;59.736;30.568;2023-05-02T11:37:29;19.99;35.12
71128;SHT30;59249;59.736;30.568;2023-05-02T11:40:10;20.01;35.08
71128;SHT30;59249;59.736;30.568;2023-05-02T11:42:40;20.02;35.10
71128;SHT30;59249;59.736;30.568;2023-05-02T11:45:33;20.03;34.81
71128;SHT30;59249;59.736;30.568;2023-05-02T11:48:04;20.05;35.05
71128;SHT30;59249;59.736;30.568;2023-05-02T11:50:43;19.94;35.10
71128;SHT30;59249;59.736;30.568;2023-05-02T11:53:20;19.92;34.31
71128;SHT30;59249;59.736;30.568;2023-05-02T11:56:14;19.84;34.09
71128;SHT30;59249;59.736;30.568;2023-05-02T11:58:57;19.74;33.60
71128;SHT30;59249;59.736;30.568;2023-05-02T12:01:29;19.87;33.71
71128;SHT30;59249;59.736;30.568;2023-05-02T12:04:03;20.10;34.23
71128;SHT30;59249;59.736;30.568;2023-05-02T12:06:35;20.12;33.96
71128;SHT30;59249;59.736;30.568;2023-05-02T12:09:22;20.17;33.81
71128;SHT30;59249;59.736;30.568;2023-05-02T12:11:58;20.26;34.22
71128;SHT30;59249;59.736;30.568;2023-05-02T12:14:30;20.38;34.05
71128;SHT30;59249;59.736;30.568;2023-05-02T12:17:04;20.57;33.68
71128;SHT30;59249;59.736;30.568;2023-05-02T12:19:39;20.68;33.19
71128;SHT30;59249;59.736;30.568;2023-05-02T12:22:09;20.58;32.86
71128;SHT30;59249;59.736;30.568;2023-05-02T12:24:41;20.48;33.11
71128;SHT30;59249;59.736;30.568;2023-05-02T12:27:14;20.43;32.92
71128;SHT30;59249;59.736;30.568;2023-05-02T12:29:48;20.37;32.77
71128;SHT30;59249;59.736;30.568;2023-05-02T12:32:43;20.47;32.61
71128;SHT30;59249;59.736;30.568;2023-05-02T12:35:21;20.55;32.17
71128;SHT30;59249;59.736;30.568;2023-05-02T12:38:06;20.50;32.33
71128;SHT30;59249;59.736;30.568;2023-05-02T12:40:37;20.40;32.30
71128;SHT30;59249;59.736;30.568;2023-05-02T12:43:07;20.40;32.76
71128;SHT30;59249;59.736;30.568;2023-05-02T12:45:42;20.30;32.19
71128;SHT30;59249;59.736;30.568;2023-05-02T12:48:37;20.14;32.24
71128;SHT30;59249;59.736;30.568;2023-05-02T12:51:21;20.29;31.92
71128;SHT30;59249;59.736;30.568;2023-05-02T12:53:51;20.39;31.76
71128;SHT30;59249;59.736;30.568;2023-05-02T12:56:22;20.38;31.64
71128;SHT30;59249;59.736;30.568;2023-05-02T12:58:54;20.37;31.50
71128;SHT30;59249;59.736;30.568;2023-05-02T13:01:27;20.51;31.69
71128;SHT30;59249;59.736;30.568;2023-05-02T13:04:00;20.66;31.52
71128;SHT30;59249;59.736;30.568;2023-05-02T13:06:46;20.68;30.74
71128;SHT30;59249;59.736;30.568;2023-05-02T13:09:17;20.80;30.79
71128;SHT30;59249;59.736;30.568;2023-05-02T13:11:49;20.89;30.44
71128;SHT30;59249;59.736;30.568;2023-05-02T13:14:27;20.89;30.27
71128;SHT30;59249;59.736;30.568;2023-05-02T13:17:00;20.77;30.38
71128;SHT30;59249;59.736;30.568;2023-05-02T13:19:31;20.56;30.37
71128;SHT30;59249;59.736;30.568;2023-05-02T13:22:03;20.64;30.69
71128;SHT30;59249;59.736;30.568;2023-05-02T13:24:33;20.53;30.68
71128;SHT30;59249;59.736;30.568;2023-05-02T13:27:02;20.56;30.68
71128;SHT30;59249;59.736;30.568;2023-05-02T13:29:30;20.55;30.72
71128;SHT30;59249;59.736;30.568;2023-05-02T13:31:59;20.58;30.85
71128;SHT30;59249;59.736;30.568;2023-05-02T13:34:28;20.64;30.66
71128;SHT30;59249;59.736;30.568;2023-05-02T13:36:58;20.63;30.39
71128;SHT30;59249;59.736;30.568;2023-05-02T13:39:27;20.73;30.69
71128;SHT30;59249;59.736;30.568;2023-05-02T13:41:57;20.75;31.26
71128;SHT30;59249;59.736;30.568;2023-05-02T13:44:25;20.93;31.38
71128;SHT30;59249;59.736;30.568;2023-05-02T13:46:59;21.07;31.19
71128;SHT30;59249;59.736;30.568;2023-05-02T13:49:29;21.27;31.19
71128;SHT30;59249;59.736;30.568;2023-05-02T13:52:00;21.17;30.66
71128;SHT30;59249;59.736;30.568;2023-05-02T13:54:29;21.03;30.52
71128;SHT30;59249;59.736;30.568;2023-05-02T13:56:58;20.88;30.74
71128;SHT30;59249;59.736;30.568;2023-05-02T13:59:27;20.70;30.84
71128;SHT30;59249;59.736;30.568;2023-05-02T14:01:56;20.74;30.91
71128;SHT30;59249;59.736;30.568;2023-05-02T14:04:25;20.61;30.88
71128;SHT30;59249;59.736;30.568;2023-05-02T14:07:02;20.54;30.42
71128;SHT30;59249;59.736;30.568;2023-05-02T14:09:31;20.38;30.53
71128;SHT30;59249;59.736;30.568;2023-05-02T14:12:07;20.21;30.69
71128;SHT30;59249;59.736;30.568;2023-05-02T14:14:38;20.28;30.94
71128;SHT30;59249;59.736;30.568;2023-05-02T14:17:08;20.24;31.12
71128;SHT30;59249;59.736;30.568;2023-05-02T14:19:41;20.22;31.03
71128;SHT30;59249;59.736;30.568;2023-05-02T14:22:14;20.34;31.10
71128;SHT30;59249;59.736;30.568;2023-05-02T14:24:46;20.36;31.65
71128;SHT30;59249;59.736;30.568;2023-05-02T14:27:18;20.26;31.57
71128;SHT30;59249;59.736;30.568;2023-05-02T14:29:50;20.30;31.35
71128;SHT30;59249;59.736;30.568;2023-05-02T14:32:19;20.32;31.38
71128;SHT30;59249;59.736;30.568;2023-05-02T14:34:50;20.33;32.28
71128;SHT30;59249;59.736;30.568;2023-05-02T14:37:25;20.31;32.43
71128;SHT30;59249;59.736;30.568;2023-05-02T14:39:55;20.24;32.53
71128;SHT30;59249;59.736;30.568;2023-05-02T14:42:26;20.21;32.22
71128;SHT30;59249;59.736;30.568;2023-05-02T14:45:13;20.17;31.94
71128;SHT30;59249;59.736;30.568;2023-05-02T14:47:42;20.17;31.91
71128;SHT30;59249;59.736;30.568;2023-05-02T14:50:12;20.05;32.30
71128;SHT30;59249;59.736;30.568;2023-05-02T14:52:42;20.08;32.23
71128;SHT30;59249;59.736;30.568;2023-05-02T14:55:13;19.98;32.21
71128;SHT30;59249;59.736;30.568;2023-05-02T14:57:43;20.07;32.21
71128;SHT30;59249;59.736;30.568;2023-05-02T15:00:14;20.10;32.62
71128;SHT30;59249;59.736;30.568;2023-05-02T15:02:44;20.08;32.82
71128;SHT30;59249;59.736;30.568;2023-05-02T15:05:17;20.09;33.03
71128;SHT30;59249;59.736;30.568;2023-05-02T15:07:50;20.08;33.06
71128;SHT30;59249;59.736;30.568;2023-05-02T15:10:20;20.14;33.21
71128;SHT30;59249;59.736;30.568;2023-05-02T15:12:50;19.99;33.31
71128;SHT30;59249;59.736;30.568;2023-05-02T15:15:23;19.93;33.30
71128;SHT30;59249;59.736;30.568;2023-05-02T15:17:53;19.93;33.29
71128;SHT30;59249;59.736;30.568;2023-05-02T15:20:22;20.00;33.59
71128;SHT30;59249;59.736;30.568;2023-05-02T15:22:52;19.96;33.52
71128;SHT30;59249;59.736;30.568;2023-05-02T15:28:13;20.08;33.57
71128;SHT30;59249;59.736;30.568;2023-05-02T15:30:52;20.19;33.61
71128;SHT30;59249;59.736;30.568;2023-05-02T15:33:23;20.29;33.64
71128;SHT30;59249;59.736;30.568;2023-05-02T15:35:53;20.47;33.68
71128;SHT30;59249;59.736;30.568;2023-05-02T15:38:24;20.51;33.05
71128;SHT30;59249;59.736;30.568;2023-05-02T15:40:55;20.43;33.56
71128;SHT30;59249;59.736;30.568;2023-05-02T15:43:25;20.17;33.69
71128;SHT30;59249;59.736;30.568;2023-05-02T15:45:57;19.97;33.85
71128;SHT30;59249;59.736;30.568;2023-05-02T15:48:28;19.68;33.90
71128;SHT30;59249;59.736;30.568;2023-05-02T15:50:59;19.45;33.98
71128;SHT30;59249;59.736;30.568;2023-05-02T15:53:32;19.26;34.17
71128;SHT30;59249;59.736;30.568;2023-05-02T15:56:10;19.12;34.64
71128;SHT30;59249;59.736;30.568;2023-05-02T15:58:49;18.97;34.82
71128;SHT30;59249;59.736;30.568;2023-05-02T16:01:20;18.88;35.05
71128;SHT30;59249;59.736;30.568;2023-05-02T16:03:51;18.81;35.19
71128;SHT30;59249;59.736;30.568;2023-05-02T16:06:21;18.75;35.27
71128;SHT30;59249;59.736;30.568;2023-05-02T16:08:56;18.68;35.64
71128;SHT30;59249;59.736;30.568;2023-05-02T16:11:28;18.64;35.69
71128;SHT30;59249;59.736;30.568;2023-05-02T16:14:02;18.55;36.06
71128;SHT30;59249;59.736;30.568;2023-05-02T16:16:42;18.44;36.24